Impacts METAR Board
IDs:

KT74 - Taylor Muni, TX, US

Updated at: 0000 UTC 01 Nov 2020
Potential Impact None Slight Moderate High
Time 31/12Z 31/13Z 31/14Z 31/15Z 31/16Z 31/17Z 31/18Z 31/19Z 31/20Z 31/21Z 31/22Z 31/23Z 01/00Z
Temp33 33 41 54 63 67 70 72 74 76 76 74 68
Dewpt31 31 37 43 42 42 39 40 40 38 38 39 39
Altim30.22 30.22 30.23 30.25 30.24 30.23 30.20 30.16 30.13 30.10 30.09 30.09 30.11
VIS10 10 10 10 10 10 10 10 10 10 10 10 10
CIG-- -- -- -- -- -- -- -- -- -- -- -- --
CoverCLRCLRCLRCLRCLRCLRCLRCLRCLRCLRCLRCLRCLR
FltCatVFRVFRVFRVFRVFRVFRVFRVFRVFRVFRVFRVFRVFR
WX--------------------------
WDir00001901901901701701801902000
WSpd0 0 0 0 8 9 10 7 10 8 8 7 0
WGst-- -- -- -- -- -- -- -- -- -- -- -- --
Raw hourly METARs
KT74 311155Z AUTO 00000KT 10SM CLR 01/M01 A3022 RMK AO2 T00071005 10035 20005
KT74 311255Z AUTO 00000KT 10SM CLR 00/00 A3022 RMK AO2 T00031005
KT74 311355Z AUTO 00000KT 10SM CLR 05/03 A3023 RMK AO2 T00500029
KT74 311455Z AUTO 00000KT 10SM CLR 12/06 A3025 RMK AO2 T01240061
KT74 311555Z AUTO 19008KT 10SM CLR 17/05 A3024 RMK AO2 T01710055
KT74 311655Z AUTO 19009KT 10SM CLR 19/06 A3023 RMK AO2 T01930056
KT74 311755Z AUTO 19010KT 10SM CLR 21/04 A3020 RMK AO2 T02120039 10217 20003
KT74 311855Z AUTO 17007KT 150V210 10SM CLR 22/04 A3016 RMK AO2 T02210043
KT74 311955Z AUTO 17010KT 10SM CLR 24/04 A3013 RMK AO2 T02360044
KT74 312055Z AUTO 18008KT 10SM CLR 24/04 A3010 RMK AO2 T02440035
KT74 312155Z AUTO 19008KT 10SM CLR 24/03 A3009 RMK AO2 T02440035
KT74 312255Z AUTO 20007KT 10SM CLR 23/04 A3009 RMK AO2 T02340038
KT74 312355Z AUTO 00000KT 10SM CLR 20/04 A3011 RMK AO2 T02010040 10251 20198 402510003